Time;durP1;ratioP1;P1;durP2;ratioP2;P2;SDS_P1;SDS_P2;PMS_P1;PMS_P2;Temp;Humidity;BMP_temperature;BMP_pressure;BME280_temperature;BME280_humidity;BME280_pressure;Samples;Min_cycle;Max_cycle;Signal;HPM_P1;HPM_P2
2024/01/08 00:00:56;;;;;;;5.38;3.88;;;;;;;0.03;100.00;102910.44;5254723;28;20040;-75
2024/01/08 00:03:28;;;;;;;4.40;3.22;;;;;;;0.14;100.00;102913.78;5254217;28;20401;-75
2024/01/08 00:06:00;;;;;;;5.10;3.88;;;;;;;0.22;100.00;102917.16;5253229;28;20028;-75
2024/01/08 00:08:32;;;;;;;3.97;3.25;;;;;;;0.14;100.00;102894.88;5253627;28;20388;-75
2024/01/08 00:11:04;;;;;;;9.35;3.90;;;;;;;0.08;100.00;102890.66;5251127;28;20132;-75
2024/01/08 00:13:36;;;;;;;4.38;3.50;;;;;;;0.25;100.00;102913.69;5253837;28;20043;-75
2024/01/08 00:16:08;;;;;;;4.43;3.30;;;;;;;0.22;100.00;102914.56;5253921;28;20037;-75
2024/01/08 00:18:40;;;;;;;3.97;3.10;;;;;;;0.17;100.00;102916.34;5234295;28;20040;-75
2024/01/08 00:21:12;;;;;;;4.60;3.42;;;;;;;0.25;100.00;102924.00;5253782;28;20027;-75
2024/01/08 00:23:44;;;;;;;4.88;3.08;;;;;;;0.20;100.00;102925.78;5253659;28;20033;-74
2024/01/08 00:26:16;;;;;;;4.75;3.60;;;;;;;0.27;100.00;102918.84;5256808;28;20036;-74
2024/01/08 00:28:48;;;;;;;4.88;3.13;;;;;;;0.23;100.00;102911.16;5255816;28;20607;-74
2024/01/08 00:31:20;;;;;;;4.93;3.53;;;;;;;0.30;100.00;102919.66;5256441;28;20036;-74
2024/01/08 00:33:52;;;;;;;4.32;3.50;;;;;;;0.25;100.00;102921.44;5257613;28;20036;-74
2024/01/08 00:36:24;;;;;;;5.30;3.35;;;;;;;0.28;100.00;102918.84;5257708;28;20031;-74
2024/01/08 00:38:56;;;;;;;4.75;3.05;;;;;;;0.32;100.00;102917.94;5256616;28;20045;-74
2024/01/08 00:41:28;;;;;;;4.03;3.30;;;;;;;0.35;100.00;102917.06;5258037;28;20025;-74
2024/01/08 00:44:00;;;;;;;4.15;3.30;;;;;;;0.42;100.00;102931.63;5257282;28;20154;-74
2024/01/08 00:46:32;;;;;;;4.68;4.15;;;;;;;0.40;100.00;102923.03;5256467;28;20041;-74
2024/01/08 00:49:04;;;;;;;8.82;5.35;;;;;;;0.37;100.00;102920.47;5256891;28;20033;-74
2024/01/08 00:51:35;;;;;;;8.98;6.25;;;;;;;0.35;100.00;102917.91;5258509;28;20037;-74
2024/01/08 00:54:07;;;;;;;7.13;5.45;;;;;;;0.37;100.00;102923.03;5257146;28;20033;-74
2024/01/08 00:56:39;;;;;;;6.85;5.63;;;;;;;0.39;100.00;102913.59;5257261;28;20037;-74
2024/01/08 00:59:11;;;;;;;9.18;6.63;;;;;;;0.35;100.00;102911.91;5256963;28;20032;-74
2024/01/08 01:01:43;;;;;;;9.98;6.60;;;;;;;0.36;100.00;102924.78;5257018;28;20084;-74
2024/01/08 01:04:15;;;;;;;10.32;7.72;;;;;;;0.37;100.00;102917.88;5257287;28;20029;-74
2024/01/08 01:06:47;;;;;;;11.38;8.70;;;;;;;0.33;100.00;102919.63;5255779;28;20035;-74
2024/01/08 01:09:19;;;;;;;12.52;9.32;;;;;;;0.36;100.00;102922.19;5256633;28;20355;-74
2024/01/08 01:11:51;;;;;;;13.85;9.20;;;;;;;0.28;100.00;102915.41;5255061;28;20055;-74
2024/01/08 01:14:23;;;;;;;12.35;9.10;;;;;;;0.27;100.00;102916.28;5257128;28;20029;-74
2024/01/08 01:16:55;;;;;;;13.10;9.82;;;;;;;0.26;100.00;102911.97;5256894;28;20036;-74
2024/01/08 01:19:27;;;;;;;14.50;9.68;;;;;;;0.32;100.00;102914.50;5257041;28;20768;-74
2024/01/08 01:21:59;;;;;;;12.88;9.30;;;;;;;0.39;100.00;102927.31;5255931;28;20033;-74
2024/01/08 01:24:31;;;;;;;14.52;11.05;;;;;;;0.33;100.00;102923.94;5257139;28;20025;-74
2024/01/08 01:27:03;;;;;;;15.07;10.48;;;;;;;0.30;100.00;102926.53;5256662;28;20033;-74
2024/01/08 01:29:35;;;;;;;13.65;10.70;;;;;;;0.35;100.00;102917.06;5255187;28;20040;-74
2024/01/08 01:32:07;;;;;;;12.93;10.20;;;;;;;0.32;100.00;102919.66;5256511;28;20474;-74
2024/01/08 01:34:39;;;;;;;14.20;8.80;;;;;;;0.28;100.00;102918.84;5256958;28;20044;-74
2024/01/08 01:37:11;;;;;;;10.60;7.97;;;;;;;0.35;100.00;102925.66;5256219;28;20040;-74
2024/01/08 01:39:43;;;;;;;10.60;7.70;;;;;;;0.32;100.00;102907.63;5255087;28;20389;-74
2024/01/08 01:42:16;;;;;;;11.52;6.72;;;;;;;0.28;100.00;102926.56;5256845;28;20035;-74
2024/01/08 01:44:47;;;;;;;8.85;6.20;;;;;;;0.39;100.00;102921.31;5255204;28;20025;-74
2024/01/08 01:47:21;;;;;;;7.85;6.20;;;;;;;0.32;100.00;102912.78;5256280;28;20044;-74
2024/01/08 01:49:53;;;;;;;7.70;5.82;;;;;;;0.41;100.00;102915.25;5255963;28;20029;-74
2024/01/08 01:52:26;;;;;;;8.48;6.35;;;;;;;0.34;100.00;102920.50;5255428;28;20017;-74
2024/01/08 01:54:58;;;;;;;8.68;6.10;;;;;;;0.38;100.00;102922.16;5255786;28;20025;-74
2024/01/08 01:57:30;;;;;;;7.18;5.55;;;;;;;0.27;100.00;102926.59;5256199;28;20695;-74
2024/01/08 02:00:03;;;;;;;6.88;4.90;;;;;;;0.23;100.00;102928.34;5236659;28;20056;-74
2024/01/08 02:02:35;;;;;;;7.38;5.65;;;;;;;0.26;100.00;102927.44;5256798;28;20033;-74
2024/01/08 02:05:08;;;;;;;7.10;5.07;;;;;;;0.26;100.00;102917.13;5256017;28;20082;-74
2024/01/08 02:07:40;;;;;;;7.65;5.50;;;;;;;0.37;100.00;102935.94;5255524;28;20025;-74
2024/01/08 02:10:12;;;;;;;7.20;5.75;;;;;;;0.38;100.00;102924.75;5260394;28;20053;-74
2024/01/08 02:12:44;;;;;;;8.10;5.97;;;;;;;0.33;100.00;102929.94;5237527;28;20039;-74
2024/01/08 02:15:16;;;;;;;7.40;5.32;;;;;;;0.27;100.00;102934.31;5255663;28;20037;-74
2024/01/08 02:17:48;;;;;;;6.45;4.80;;;;;;;0.35;100.00;102930.81;5253681;28;20125;-74
2024/01/08 02:20:20;;;;;;;6.10;4.70;;;;;;;0.31;100.00;102936.84;5254845;28;20032;-74
2024/01/08 02:22:52;;;;;;;6.13;4.75;;;;;;;0.32;100.00;102924.81;5256062;28;20211;-74
2024/01/08 02:25:26;;;;;;;6.78;4.30;;;;;;;0.42;100.00;102932.47;5255450;28;20031;-74
2024/01/08 02:27:58;;;;;;;5.03;4.00;;;;;;;0.36;100.00;102944.53;5253756;28;20031;-74
2024/01/08 02:30:30;;;;;;;4.18;3.65;;;;;;;0.22;100.00;102932.59;5256001;28;20037;-74
2024/01/08 02:33:02;;;;;;;4.95;3.70;;;;;;;0.23;100.00;102933.50;5255013;28;20043;-74
2024/01/08 02:35:33;;;;;;;8.15;3.80;;;;;;;0.15;100.00;102946.44;5255210;28;20115;-74
2024/01/08 02:38:05;;;;;;;5.32;3.58;;;;;;;0.13;100.00;102945.59;5253698;28;20047;-74
2024/01/08 02:40:37;;;;;;;4.32;3.38;;;;;;;-0.04;100.00;102930.25;5254010;28;20041;-74
2024/01/08 02:43:09;;;;;;;3.60;2.80;;;;;;;-0.07;100.00;102925.13;5255162;28;20064;-74
2024/01/08 02:45:41;;;;;;;4.28;3.10;;;;;;;-0.02;100.00;102948.28;5237543;28;20049;-74
2024/01/08 02:48:13;;;;;;;4.18;3.28;;;;;;;-0.01;100.00;102955.97;5251497;28;20049;-74
2024/01/08 02:50:45;;;;;;;4.95;3.30;;;;;;;-0.11;100.00;102949.19;5255176;28;20381;-74
2024/01/08 02:53:17;;;;;;;5.10;3.03;;;;;;;-0.14;100.00;102963.81;5233473;28;20045;-75
2024/01/08 02:55:49;;;;;;;5.05;3.08;;;;;;;-0.22;100.00;102963.00;5253831;28;20029;-74
2024/01/08 02:58:21;;;;;;;3.90;3.30;;;;;;;-0.22;100.00;102960.44;5234488;28;20040;-74
2024/01/08 03:00:53;;;;;;;4.45;3.70;;;;;;;-0.36;100.00;102958.78;5254877;28;20107;-74
2024/01/08 03:03:25;;;;;;;5.45;3.67;;;;;;;-0.32;100.00;102965.63;5252829;28;20029;-74
2024/01/08 03:05:57;;;;;;;5.28;3.58;;;;;;;-0.26;100.00;102965.59;5252734;28;20054;-74
2024/01/08 03:08:29;;;;;;;4.82;3.75;;;;;;;-0.28;100.00;102962.16;5234843;28;20036;-74
2024/01/08 03:11:01;;;;;;;4.25;3.45;;;;;;;-0.30;100.00;102956.19;5254481;28;20037;-74
2024/01/08 03:13:33;;;;;;;4.03;3.17;;;;;;;-0.34;100.00;102956.19;5255207;28;20441;-74
2024/01/08 03:16:05;;;;;;;4.80;3.70;;;;;;;-0.28;100.00;102964.75;5253600;28;20039;-74
2024/01/08 03:18:37;;;;;;;6.53;4.05;;;;;;;-0.31;100.00;102959.59;5254550;28;20032;-74
2024/01/08 03:21:09;;;;;;;4.60;3.88;;;;;;;-0.31;100.00;102966.47;5254218;28;20944;-74
2024/01/08 03:23:41;;;;;;;5.57;3.97;;;;;;;-0.39;100.00;102952.78;5254350;28;20043;-74
2024/01/08 03:26:13;;;;;;;5.60;4.32;;;;;;;-0.31;100.00;102959.59;5254664;28;20041;-74
2024/01/08 03:28:45;;;;;;;5.90;4.13;;;;;;;-0.27;100.00;102963.00;5254502;28;20367;-74
2024/01/08 03:31:17;;;;;;;4.63;3.65;;;;;;;-0.27;100.00;102966.44;5253119;28;20039;-74
2024/01/08 03:33:48;;;;;;;5.22;3.90;;;;;;;-0.30;100.00;102961.34;5254958;28;20025;-74
2024/01/08 03:36:20;;;;;;;5.65;3.97;;;;;;;-0.30;100.00;102963.06;5254312;28;20031;-74
2024/01/08 03:38:52;;;;;;;6.03;4.30;;;;;;;-0.25;100.00;102969.88;5254906;28;20738;-74
2024/01/08 03:41:24;;;;;;;5.13;3.95;;;;;;;-0.28;100.00;102956.16;5253770;28;20025;-74
2024/01/08 03:43:56;;;;;;;5.03;3.90;;;;;;;-0.33;100.00;102953.63;5254134;28;20047;-74
2024/01/08 03:46:28;;;;;;;4.53;3.85;;;;;;;-0.18;100.00;102968.13;5254860;28;20058;-74
2024/01/08 03:49:01;;;;;;;5.60;4.35;;;;;;;-0.28;100.00;102966.47;5253254;28;20033;-74
2024/01/08 03:51:34;;;;;;;5.72;4.25;;;;;;;-0.11;100.00;102974.09;5254978;28;20398;-74
2024/01/08 03:54:07;;;;;;;;;;;;;;;0.35;100.00;102977.22;5253129;28;20029;-74
2024/01/08 03:56:39;;;;;;;4.88;3.70;;;;;;;-0.11;100.00;102967.22;5255025;28;19923;-73
2024/01/08 03:59:15;;;;;;;5.83;4.03;;;;;;;-0.07;100.00;102965.50;5254411;28;20386;-74
2024/01/08 04:01:49;;;;;;;5.68;4.55;;;;;;;-0.22;100.00;102956.13;5256296;28;21243;-74
2024/01/08 04:04:21;;;;;;;5.32;4.13;;;;;;;-0.19;100.00;102965.53;5258569;28;20047;-74
2024/01/08 04:06:53;;;;;;;5.18;4.03;;;;;;;-0.17;100.00;102956.94;5258455;28;20032;-74
2024/01/08 04:09:25;;;;;;;5.32;3.67;;;;;;;-0.11;100.00;102974.09;5257198;28;20549;-74
2024/01/08 04:11:57;;;;;;;7.00;4.53;;;;;;;-0.10;100.00;102975.81;5259200;28;20037;-74
2024/01/08 04:14:29;;;;;;;5.35;3.95;;;;;;;-0.08;100.00;102979.22;5258312;28;20028;-74
2024/01/08 04:17:00;;;;;;;5.25;4.38;;;;;;;-0.08;100.00;102971.50;5258040;28;20052;-74
2024/01/08 04:19:33;;;;;;;4.85;3.97;;;;;;;-0.01;100.00;102971.44;5257686;28;20041;-73
2024/01/08 04:22:04;;;;;;;4.70;3.70;;;;;;;-0.07;100.00;102952.63;5257779;28;20033;-74
2024/01/08 04:24:36;;;;;;;5.07;4.15;;;;;;;-0.02;100.00;102968.88;5257229;28;20037;-74
2024/01/08 04:27:08;;;;;;;6.30;4.38;;;;;;;-0.05;100.00;102958.59;5256721;28;20413;-73
2024/01/08 04:29:40;;;;;;;6.03;4.15;;;;;;;0.02;100.00;102973.16;5258190;28;20043;-73
2024/01/08 04:32:12;;;;;;;5.55;4.22;;;;;;;-0.19;100.00;102938.09;5258690;28;20033;-73
2024/01/08 04:34:44;;;;;;;5.22;4.07;;;;;;;0.08;100.00;102974.84;5257541;28;20024;-73
2024/01/08 04:37:16;;;;;;;4.78;3.80;;;;;;;0.07;100.00;102976.53;5262422;28;20037;-73
2024/01/08 04:39:48;;;;;;;5.03;3.50;;;;;;;0.01;100.00;102965.44;5237735;28;20505;-74
2024/01/08 04:42:20;;;;;;;5.18;3.42;;;;;;;-0.04;100.00;102962.88;5256216;28;20032;-73
2024/01/08 04:44:52;;;;;;;5.00;4.00;;;;;;;0.04;100.00;102971.44;5256553;28;20033;-74
2024/01/08 04:47:24;;;;;;;5.20;3.80;;;;;;;0.02;100.00;102973.16;5257707;28;20029;-74
2024/01/08 04:49:56;;;;;;;5.55;4.07;;;;;;;-0.01;100.00;102973.16;5257248;28;20036;-74
2024/01/08 04:52:28;;;;;;;5.10;3.75;;;;;;;-0.10;100.00;102960.34;5257683;28;20033;-73
2024/01/08 04:54:59;;;;;;;4.45;3.67;;;;;;;-0.01;100.00;102974.00;5255466;28;20051;-73
2024/01/08 04:57:31;;;;;;;5.53;3.90;;;;;;;-0.04;100.00;102968.91;5254881;28;20028;-74
2024/01/08 05:00:04;;;;;;;6.00;3.80;;;;;;;-0.02;100.00;102969.75;5254859;28;21156;-74
2024/01/08 05:02:36;;;;;;;5.97;4.35;;;;;;;0.03;100.00;102967.13;5256221;28;20052;-74
2024/01/08 05:05:08;;;;;;;4.80;3.35;;;;;;;0.00;100.00;102972.31;5256358;28;20500;-74
2024/01/08 05:07:40;;;;;;;5.50;4.35;;;;;;;-0.12;100.00;102951.75;5255773;28;20465;-74
2024/01/08 05:10:12;;;;;;;5.65;3.97;;;;;;;0.07;100.00;102967.97;5256028;28;20406;-74
2024/01/08 05:12:44;;;;;;;5.18;3.50;;;;;;;0.09;100.00;102969.66;5255216;28;20372;-74
2024/01/08 05:15:16;;;;;;;5.05;3.72;;;;;;;0.11;100.00;102962.75;5255162;28;20040;-73
2024/01/08 05:17:48;;;;;;;5.57;3.95;;;;;;;0.15;100.00;102961.03;5255446;28;20043;-74
2024/01/08 05:20:20;;;;;;;5.50;3.70;;;;;;;0.14;100.00;102965.31;5257208;28;20568;-74
2024/01/08 05:22:52;;;;;;;6.43;4.30;;;;;;;0.14;100.00;102970.47;5256966;28;20021;-74
2024/01/08 05:25:23;;;;;;;5.85;4.25;;;;;;;0.09;100.00;102961.94;5255315;28;20037;-74
2024/01/08 05:27:55;;;;;;;6.60;4.30;;;;;;;0.07;100.00;102962.81;5253645;28;20474;-74
2024/01/08 05:30:27;;;;;;;5.38;3.80;;;;;;;0.14;100.00;102967.91;5254171;28;20043;-74
2024/01/08 05:33:00;;;;;;;5.63;3.85;;;;;;;0.13;100.00;102966.19;5256695;28;20037;-74
2024/01/08 05:35:33;;;;;;;5.30;4.07;;;;;;;0.08;100.00;102961.97;5236929;28;20382;-74
2024/01/08 05:38:05;;;;;;;6.03;3.70;;;;;;;0.13;100.00;102958.47;5239000;28;20041;-74
2024/01/08 05:40:37;;;;;;;6.28;4.13;;;;;;;0.13;100.00;102973.09;5237713;28;20051;-74
2024/01/08 05:43:09;;;;;;;5.95;3.83;;;;;;;0.08;100.00;102954.22;5238999;28;20033;-74
2024/01/08 05:45:41;;;;;;;5.95;4.15;;;;;;;0.14;100.00;102964.47;5256910;28;20029;-74
2024/01/08 05:48:13;;;;;;;5.25;3.50;;;;;;;0.08;100.00;102949.06;5255946;28;20024;-74
2024/01/08 05:50:46;;;;;;;6.35;4.13;;;;;;;0.21;100.00;102959.25;5256676;28;20025;-74
2024/01/08 05:53:18;;;;;;;6.72;4.75;;;;;;;0.19;100.00;102947.25;5255258;28;20041;-73
2024/01/08 05:55:50;;;;;;;7.88;4.47;;;;;;;0.22;100.00;102960.13;5255873;28;20040;-74
2024/01/08 05:58:22;;;;;;;6.15;4.25;;;;;;;0.14;100.00;102959.31;5238158;28;20037;-74
2024/01/08 06:00:54;;;;;;;5.95;4.38;;;;;;;0.16;100.00;102960.19;5256969;28;20398;-74
2024/01/08 06:03:25;;;;;;;8.55;5.35;;;;;;;0.20;100.00;102962.72;5255733;28;20047;-74
2024/01/08 06:05:57;;;;;;;5.72;4.30;;;;;;;0.14;100.00;102960.16;5256196;28;20067;-74
2024/01/08 06:08:29;;;;;;;6.40;4.40;;;;;;;0.27;100.00;102960.09;5256425;28;20025;-74
2024/01/08 06:11:01;;;;;;;5.53;4.47;;;;;;;0.30;100.00;102962.63;5254822;28;20060;-74
2024/01/08 06:13:35;;;;;;;6.30;4.72;;;;;;;0.33;100.00;102965.19;5255731;28;20036;-74
2024/01/08 06:16:13;;;;;;;7.50;4.70;;;;;;;0.24;100.00;102955.81;5256550;28;20025;-74
2024/01/08 06:18:45;;;;;;;6.40;4.72;;;;;;;0.20;100.00;102952.41;5255310;28;20047;-74
2024/01/08 06:21:17;;;;;;;6.78;5.07;;;;;;;0.30;100.00;102960.91;5256701;28;20033;-74
2024/01/08 06:23:48;;;;;;;7.38;5.07;;;;;;;0.27;100.00;102944.63;5254983;28;20044;-74
2024/01/08 06:26:21;;;;;;;7.78;4.88;;;;;;;0.23;100.00;102943.81;5256297;28;20094;-74
2024/01/08 06:28:53;;;;;;;6.60;4.88;;;;;;;0.27;100.00;102954.94;5256480;28;20033;-74
2024/01/08 06:31:25;;;;;;;9.00;6.43;;;;;;;0.28;100.00;102960.09;5254333;28;20041;-73
2024/01/08 06:33:57;;;;;;;6.10;4.97;;;;;;;0.38;100.00;102960.84;5255169;28;20537;-74
2024/01/08 06:36:28;;;;;;;8.05;5.57;;;;;;;0.35;100.00;102953.16;5256337;28;20386;-74
2024/01/08 06:39:01;;;;;;;8.02;5.28;;;;;;;0.42;100.00;102958.25;5255877;28;20029;-74
2024/01/08 06:41:32;;;;;;;7.82;5.38;;;;;;;0.44;100.00;102953.91;5254124;28;20059;-74
2024/01/08 06:44:05;;;;;;;12.77;5.30;;;;;;;0.43;100.00;102948.78;5252417;28;20044;-74
2024/01/08 06:46:37;;;;;;;7.97;5.40;;;;;;;0.47;100.00;102948.75;5236737;28;20072;-74
2024/01/08 06:49:09;;;;;;;7.07;5.47;;;;;;;0.36;100.00;102953.13;5254744;28;20275;-74
2024/01/08 06:51:41;;;;;;;10.55;5.93;;;;;;;0.35;100.00;102948.00;5255445;28;20024;-73
2024/01/08 06:54:13;;;;;;;6.95;5.40;;;;;;;0.44;100.00;102953.91;5252853;28;20036;-74
2024/01/08 06:56:45;;;;;;;6.28;5.13;;;;;;;0.45;100.00;102954.78;5253310;28;20497;-74
2024/01/08 06:59:18;;;;;;;7.53;5.20;;;;;;;0.46;100.00;102948.78;5253894;28;20025;-75
2024/01/08 07:01:51;;;;;;;8.30;5.93;;;;;;;0.46;100.00;102953.94;5256331;28;20960;-75
2024/01/08 07:04:23;;;;;;;8.43;5.43;;;;;;;0.48;100.00;102958.19;5257853;28;20032;-75
2024/01/08 07:06:55;;;;;;;7.68;5.82;;;;;;;0.37;100.00;102941.09;5258127;28;20470;-75
2024/01/08 07:09:27;;;;;;;8.35;5.40;;;;;;;0.43;100.00;102949.63;5255340;28;20037;-75
2024/01/08 07:11:59;;;;;;;9.77;6.35;;;;;;;0.52;100.00;102963.31;5254315;28;20029;-75
2024/01/08 07:14:31;;;;;;;8.18;5.80;;;;;;;0.46;100.00;102965.09;5255520;28;20493;-75
2024/01/08 07:17:03;;;;;;;7.72;5.60;;;;;;;0.48;100.00;102954.75;5253641;28;20032;-74
2024/01/08 07:19:35;;;;;;;9.77;6.57;;;;;;;0.47;100.00;102963.38;5244522;28;20041;-75
2024/01/08 07:22:07;;;;;;;7.65;6.30;;;;;;;0.48;100.00;102965.91;5252817;28;20021;-75
2024/01/08 07:24:40;;;;;;;8.40;5.80;;;;;;;0.53;100.00;102965.91;5254213;28;20051;-75
2024/01/08 07:27:12;;;;;;;8.07;5.95;;;;;;;0.57;100.00;102969.28;5253729;28;20032;-75
2024/01/08 07:29:44;;;;;;;10.50;6.70;;;;;;;0.48;100.00;102965.06;5253612;28;20944;-75
2024/01/08 07:32:16;;;;;;;8.60;6.30;;;;;;;0.46;100.00;102977.97;5252807;28;20479;-75
2024/01/08 07:34:48;;;;;;;7.38;6.07;;;;;;;0.47;100.00;102955.63;5255161;28;20032;-75
2024/01/08 07:37:20;;;;;;;9.25;6.50;;;;;;;0.55;100.00;102984.78;5259561;28;20039;-75
2024/01/08 07:39:52;;;;;;;7.53;6.20;;;;;;;0.61;100.00;102978.72;5257045;28;20048;-75
2024/01/08 07:42:24;;;;;;;7.43;5.65;;;;;;;0.65;100.00;102983.84;5253407;28;20036;-75
2024/01/08 07:44:55;;;;;;;7.78;6.15;;;;;;;0.60;100.00;102988.16;5258128;28;20040;-75
2024/01/08 07:47:28;;;;;;;7.78;5.30;;;;;;;0.68;100.00;102993.25;5258661;28;20021;-75
2024/01/08 07:50:00;;;;;;;8.60;5.60;;;;;;;0.68;100.00;103001.88;5258093;28;20040;-75
2024/01/08 07:52:32;;;;;;;7.63;6.00;;;;;;;0.67;100.00;103007.88;5238958;28;20045;-75
2024/01/08 07:55:04;;;;;;;7.30;5.85;;;;;;;0.65;100.00;102983.84;5256904;28;20072;-75
2024/01/08 07:57:36;;;;;;;8.85;6.00;;;;;;;0.78;100.00;102997.47;5239108;28;20079;-75
2024/01/08 08:00:11;;;;;;;7.75;5.72;;;;;;;0.75;100.00;102994.91;5257409;28;20604;-75
2024/01/08 08:02:43;;;;;;;6.97;5.68;;;;;;;0.81;100.00;102992.28;5257216;28;20486;-75
2024/01/08 08:05:16;;;;;;;8.25;5.68;;;;;;;0.81;100.00;102992.28;5257547;28;20064;-75
2024/01/08 08:07:49;;;;;;;8.10;5.60;;;;;;;0.77;100.00;102990.59;5239745;28;20049;-75
2024/01/08 08:10:22;;;;;;;7.32;5.80;;;;;;;0.71;100.00;102985.50;5256815;28;20041;-75
2024/01/08 08:12:54;;;;;;;7.55;5.65;;;;;;;0.74;100.00;102995.78;5256228;28;20406;-75
2024/01/08 08:15:26;;;;;;;8.05;5.35;;;;;;;0.76;100.00;102991.47;5256536;28;20032;-75
2024/01/08 08:17:58;;;;;;;7.85;5.65;;;;;;;0.73;100.00;102984.63;5255804;28;20024;-75
2024/01/08 08:20:30;;;;;;;7.32;5.88;;;;;;;0.78;100.00;102991.47;5253109;28;20048;-75
2024/01/08 08:23:02;;;;;;;8.25;5.85;;;;;;;0.69;100.00;102982.94;5254109;28;20047;-75
2024/01/08 08:25:34;;;;;;;7.00;5.43;;;;;;;0.87;100.00;103006.84;5256968;28;20033;-74
2024/01/08 08:28:06;;;;;;;9.32;5.93;;;;;;;0.89;100.00;103003.38;5257754;28;20029;-75
2024/01/08 08:30:38;;;;;;;8.88;5.55;;;;;;;0.88;100.00;103006.00;5255817;28;20059;-75
2024/01/08 08:33:10;;;;;;;7.10;4.97;;;;;;;0.93;100.00;103006.78;5257063;28;20025;-75
2024/01/08 08:35:42;;;;;;;7.80;5.20;;;;;;;0.87;100.00;102999.09;5257363;28;20119;-75
2024/01/08 08:38:14;;;;;;;7.25;4.90;;;;;;;0.91;100.00;103000.78;5256371;28;20063;-75
2024/01/08 08:40:45;;;;;;;8.60;5.20;;;;;;;0.94;100.00;103004.19;5256556;28;20047;-74
2024/01/08 08:43:17;;;;;;;6.68;5.22;;;;;;;0.91;100.00;103009.41;5256534;28;20017;-75
2024/01/08 08:45:49;;;;;;;6.15;4.50;;;;;;;0.97;100.00;103014.47;5252284;28;20029;-75
2024/01/08 08:48:21;;;;;;;8.90;5.47;;;;;;;1.00;100.00;103007.59;5255683;28;20982;-75
2024/01/08 08:50:53;;;;;;;8.50;5.50;;;;;;;1.00;100.00;103016.19;5255803;28;20035;-75
2024/01/08 08:53:25;;;;;;;6.97;5.28;;;;;;;1.02;100.00;103016.16;5256041;28;20379;-75
2024/01/08 08:55:57;;;;;;;7.22;5.03;;;;;;;1.05;100.00;103010.97;5236847;28;20047;-75
2024/01/08 08:58:29;;;;;;;7.82;4.80;;;;;;;1.08;100.00;103009.22;5256045;28;20033;-75
2024/01/08 09:01:01;;;;;;;7.07;5.38;;;;;;;0.91;100.00;103001.66;5255788;28;20047;-75
2024/01/08 09:03:33;;;;;;;5.47;4.40;;;;;;;0.94;100.00;103013.66;5255283;28;20037;-75
2024/01/08 09:06:06;;;;;;;6.28;4.68;;;;;;;0.93;100.00;103004.22;5251749;28;20033;-75
2024/01/08 09:08:38;;;;;;;;;;;;;;;1.48;100.00;103016.53;5256079;28;20016;-75
2024/01/08 09:11:10;;;;;;;7.78;5.22;;;;;;;1.05;100.00;103024.72;5254406;28;20405;-75
2024/01/08 09:13:42;;;;;;;6.40;4.68;;;;;;;0.94;100.00;103017.09;5254882;28;20150;-75
2024/01/08 09:16:15;;;;;;;6.00;4.60;;;;;;;1.00;100.00;103026.50;5253582;28;20033;-75
2024/01/08 09:18:47;;;;;;;6.72;4.70;;;;;;;1.03;100.00;103023.06;5253465;28;20041;-75
2024/01/08 09:21:19;;;;;;;7.03;4.32;;;;;;;0.94;100.00;103018.81;5238012;28;20033;-75
2024/01/08 09:23:51;;;;;;;7.78;4.85;;;;;;;0.97;100.00;103017.06;5254576;28;20043;-75
2024/01/08 09:26:22;;;;;;;5.10;4.10;;;;;;;1.00;100.00;103018.78;5236948;28;20041;-75
2024/01/08 09:28:55;;;;;;;7.35;5.15;;;;;;;1.02;100.00;103026.47;5255924;28;20028;-75
2024/01/08 09:31:26;;;;;;;5.35;4.53;;;;;;;0.90;100.00;103040.38;5254554;28;20028;-75
2024/01/08 09:33:58;;;;;;;6.55;4.53;;;;;;;0.93;100.00;103023.13;5255265;28;20111;-75
2024/01/08 09:36:30;;;;;;;7.43;4.22;;;;;;;0.96;100.00;103040.31;5255351;28;20075;-75
2024/01/08 09:39:03;;;;;;;7.40;4.70;;;;;;;0.88;100.00;103031.78;5254653;28;20059;-75
2024/01/08 09:41:37;;;;;;;6.40;4.68;;;;;;;0.96;100.00;103038.59;5255949;28;20041;-75
2024/01/08 09:44:13;;;;;;;7.47;4.00;;;;;;;1.02;100.00;103040.25;5253054;28;20033;-75
2024/01/08 09:46:50;;;;;;;6.05;4.28;;;;;;;0.91;100.00;103047.22;5256774;28;20029;-75
2024/01/08 09:49:24;;;;;;;6.00;4.45;;;;;;;0.87;100.00;103046.44;5255747;28;20028;-74
2024/01/08 09:51:55;;;;;;;5.88;4.82;;;;;;;0.94;100.00;103048.06;5255132;28;20689;-75
2024/01/08 09:54:29;;;;;;;7.03;4.65;;;;;;;0.97;100.00;103042.88;5255805;28;20040;-75
2024/01/08 09:57:02;;;;;;;;;;;;;;;1.50;100.00;103048.34;5255112;28;20037;-74
2024/01/08 09:59:34;;;;;;;5.97;4.63;;;;;;;1.04;100.00;103046.25;5254783;28;19909;-75
2024/01/08 10:02:15;;;;;;;5.95;4.75;;;;;;;1.06;100.00;103053.97;5254182;28;20033;-75
2024/01/08 10:04:47;;;;;;;6.53;4.90;;;;;;;0.93;100.00;103053.25;5237556;28;20036;-75
2024/01/08 10:07:19;;;;;;;5.70;4.90;;;;;;;0.83;100.00;103057.63;5254527;28;20032;-75
2024/01/08 10:09:51;;;;;;;7.15;5.30;;;;;;;0.76;100.00;103044.78;5253451;28;20044;-75
2024/01/08 10:12:23;;;;;;;8.32;5.05;;;;;;;0.83;100.00;103056.75;5255522;28;20033;-75
2024/01/08 10:14:55;;;;;;;7.63;5.13;;;;;;;0.91;100.00;103047.22;5254847;28;20039;-74
2024/01/08 10:17:27;;;;;;;6.47;4.82;;;;;;;0.92;100.00;103047.22;5254128;28;20453;-75
2024/01/08 10:20:09;;;;;;;5.80;5.03;;;;;;;1.06;100.00;103034.22;5254633;28;20020;-75
2024/01/08 10:22:43;;;;;;;5.97;4.90;;;;;;;1.02;100.00;103045.41;5255295;28;20390;-74
2024/01/08 10:25:21;;;;;;;7.10;5.00;;;;;;;1.15;100.00;103031.53;5238197;28;20048;-75
2024/01/08 10:27:55;;;;;;;5.40;4.15;;;;;;;1.10;100.00;103043.63;5254550;28;20029;-75
2024/01/08 10:30:27;;;;;;;5.55;4.53;;;;;;;1.12;100.00;103047.03;5253801;28;20035;-75
2024/01/08 10:33:02;;;;;;;5.32;4.30;;;;;;;1.12;100.00;103034.13;5252596;28;20041;-75
2024/01/08 10:35:35;;;;;;;6.53;5.28;;;;;;;1.13;100.00;103024.66;5254474;28;20066;-75
2024/01/08 10:38:07;;;;;;;6.50;4.10;;;;;;;1.11;100.00;103034.16;5255227;28;20036;-75
2024/01/08 10:40:39;;;;;;;5.32;4.30;;;;;;;1.23;100.00;103035.75;5254821;28;20037;-74
2024/01/08 10:43:11;;;;;;;5.88;4.82;;;;;;;1.25;100.00;103016.81;5254403;28;20033;-74
2024/01/08 10:45:44;;;;;;;6.38;4.22;;;;;;;1.00;100.00;102977.47;5253202;28;20086;-75
2024/01/08 10:48:21;;;;;;;5.65;4.20;;;;;;;1.34;100.00;103018.41;5255539;28;20044;-74
2024/01/08 10:50:54;;;;;;;5.60;4.07;;;;;;;1.24;100.00;103011.63;5255479;28;20027;-74
2024/01/08 10:53:44;;;;;;;7.25;4.55;;;;;;;1.36;100.00;103014.06;5253174;28;20029;-75
2024/01/08 10:56:20;;;;;;;7.88;4.55;;;;;;;1.09;100.00;103015.22;5251024;28;20048;-74
2024/01/08 10:59:05;;;;;;;6.68;4.75;;;;;;;1.25;100.00;103016.81;5253575;28;20048;-74
2024/01/08 11:01:38;;;;;;;6.32;4.43;;;;;;;1.19;100.00;103003.94;5255547;28;20029;-74
2024/01/08 11:04:11;;;;;;;5.18;4.03;;;;;;;1.28;100.00;103000.41;5251658;28;20565;-74
2024/01/08 11:06:45;;;;;;;;;;;;;;;1.78;100.00;102998.91;5252085;28;20044;-74
2024/01/08 11:09:31;;;;;;;4.78;4.00;;;;;;;1.41;100.00;103010.56;5253887;28;19917;-75
2024/01/08 11:12:03;;;;;;;6.22;3.88;;;;;;;1.37;100.00;103016.66;5252585;28;20486;-74
2024/01/08 11:14:39;;;;;;;6.18;4.45;;;;;;;1.44;100.00;103004.53;5252021;28;20017;-74
2024/01/08 11:17:10;;;;;;;5.97;4.80;;;;;;;1.40;100.00;103002.81;5235850;28;20044;-75
2024/01/08 11:19:45;;;;;;;6.90;4.20;;;;;;;1.32;100.00;102995.16;5253539;28;20068;-75
2024/01/08 11:22:17;;;;;;;5.05;3.78;;;;;;;1.35;100.00;103008.06;5253012;28;20048;-75
2024/01/08 11:24:49;;;;;;;4.65;3.47;;;;;;;1.38;100.00;103002.00;5253277;28;20619;-75
2024/01/08 11:27:21;;;;;;;5.10;3.47;;;;;;;1.32;100.00;103000.34;5251936;28;20025;-74
2024/01/08 11:30:01;;;;;;;5.35;3.35;;;;;;;1.54;100.00;102997.50;5252733;28;20036;-75
2024/01/08 11:32:59;;;;;;;5.28;3.85;;;;;;;1.65;100.00;102993.91;5255527;28;20040;-75
2024/01/08 11:35:46;;;;;;;5.35;3.35;;;;;;;1.57;100.00;103000.91;5254379;28;20048;-74
2024/01/08 11:38:28;;;;;;;4.50;2.95;;;;;;;1.65;100.00;102996.50;5253673;28;20035;-75
2024/01/08 11:41:00;;;;;;;5.50;3.40;;;;;;;1.70;100.00;102991.25;5253268;28;20033;-75
2024/01/08 11:43:32;;;;;;;4.32;3.35;;;;;;;1.68;100.00;102991.28;5254047;28;20109;-74
2024/01/08 11:46:04;;;;;;;5.28;3.65;;;;;;;1.54;100.00;102989.75;5248538;28;20040;-74
2024/01/08 11:48:36;;;;;;;4.38;3.00;;;;;;;1.44;100.00;102984.72;5254476;28;20032;-75